sensor_id;sensor_type;location;lat;lon;timestamp;pressure;altitude;pressure_sealevel;temperature;humidity
65376;BME280;51976;47.332;9.404;2022-09-01T00:01:50;93023.03;;;21.51;55.54
65376;BME280;51976;47.332;9.404;2022-09-01T00:04:20;93025.44;;;21.52;55.64
65376;BME280;51976;47.332;9.404;2022-09-01T00:06:46;93018.34;;;21.51;55.47
65376;BME280;51976;47.332;9.404;2022-09-01T00:09:14;93026.91;;;21.50;55.53
65376;BME280;51976;47.332;9.404;2022-09-01T00:11:43;93018.69;;;21.50;55.69
65376;BME280;51976;47.332;9.404;2022-09-01T00:14:09;93020.63;;;21.49;55.64
65376;BME280;51976;47.332;9.404;2022-09-01T00:16:35;93019.50;;;21.50;55.65
65376;BME280;51976;47.332;9.404;2022-09-01T00:19:00;93016.75;;;21.50;55.58
65376;BME280;51976;47.332;9.404;2022-09-01T00:21:31;93015.50;;;21.48;55.65
65376;BME280;51976;47.332;9.404;2022-09-01T00:23:57;93015.16;;;21.49;55.99
65376;BME280;51976;47.332;9.404;2022-09-01T00:26:22;93016.63;;;21.47;55.73
65376;BME280;51976;47.332;9.404;2022-09-01T00:28:48;93010.00;;;21.48;55.85
65376;BME280;51976;47.332;9.404;2022-09-01T00:31:14;93018.91;;;21.45;55.65
65376;BME280;51976;47.332;9.404;2022-09-01T00:33:41;93009.44;;;21.42;55.58
65376;BME280;51976;47.332;9.404;2022-09-01T00:36:06;93014.25;;;21.45;55.85
65376;BME280;51976;47.332;9.404;2022-09-01T00:38:32;93012.28;;;21.46;55.88
65376;BME280;51976;47.332;9.404;2022-09-01T00:40:59;93015.50;;;21.48;55.89
65376;BME280;51976;47.332;9.404;2022-09-01T00:43:44;93013.44;;;21.45;55.62
65376;BME280;51976;47.332;9.404;2022-09-01T00:46:15;93008.75;;;21.45;55.81
65376;BME280;51976;47.332;9.404;2022-09-01T00:48:40;93001.66;;;21.44;55.52
65376;BME280;51976;47.332;9.404;2022-09-01T00:51:08;93000.88;;;21.44;55.84
65376;BME280;51976;47.332;9.404;2022-09-01T00:53:36;93009.09;;;21.44;55.66
65376;BME280;51976;47.332;9.404;2022-09-01T00:56:03;93011.84;;;21.44;55.58
65376;BME280;51976;47.332;9.404;2022-09-01T00:58:30;93009.91;;;21.44;55.87
65376;BME280;51976;47.332;9.404;2022-09-01T01:00:56;93010.69;;;21.45;55.70
65376;BME280;51976;47.332;9.404;2022-09-01T01:03:23;92998.56;;;21.46;55.41
65376;BME280;51976;47.332;9.404;2022-09-01T01:05:52;93002.47;;;21.45;55.65
65376;BME280;51976;47.332;9.404;2022-09-01T01:08:26;93001.22;;;21.42;55.65
65376;BME280;51976;47.332;9.404;2022-09-01T01:11:04;93008.75;;;21.45;55.51
65376;BME280;51976;47.332;9.404;2022-09-01T01:13:30;93001.22;;;21.42;55.61
65376;BME280;51976;47.332;9.404;2022-09-01T01:16:01;93002.34;;;21.41;55.60
65376;BME280;51976;47.332;9.404;2022-09-01T01:18:27;92996.88;;;21.41;55.53
65376;BME280;51976;47.332;9.404;2022-09-01T01:21:03;92998.47;;;21.42;55.47
65376;BME280;51976;47.332;9.404;2022-09-01T01:26:42;92999.97;;;21.40;55.76
65376;BME280;51976;47.332;9.404;2022-09-01T01:29:09;92995.28;;;21.40;55.62
65376;BME280;51976;47.332;9.404;2022-09-01T01:31:34;92995.16;;;21.37;55.55
65376;BME280;51976;47.332;9.404;2022-09-01T01:34:00;92992.06;;;21.38;55.45
65376;BME280;51976;47.332;9.404;2022-09-01T01:36:29;92997.09;;;21.36;55.52
65376;BME280;51976;47.332;9.404;2022-09-01T01:38:59;92993.22;;;21.37;55.54
65376;BME280;51976;47.332;9.404;2022-09-01T01:41:26;92994.34;;;21.36;55.82
65376;BME280;51976;47.332;9.404;2022-09-01T01:43:52;92993.56;;;21.36;55.78
65376;BME280;51976;47.332;9.404;2022-09-01T01:46:17;92996.31;;;21.36;55.75
65376;BME280;51976;47.332;9.404;2022-09-01T01:48:43;92987.28;;;21.35;55.82
65376;BME280;51976;47.332;9.404;2022-09-01T01:51:10;92987.72;;;21.37;55.80
65376;BME280;51976;47.332;9.404;2022-09-01T01:53:38;92994.69;;;21.35;55.60
65376;BME280;51976;47.332;9.404;2022-09-01T01:56:04;92997.44;;;21.35;55.73
65376;BME280;51976;47.332;9.404;2022-09-01T01:58:31;92994.28;;;21.33;55.60
65376;BME280;51976;47.332;9.404;2022-09-01T02:00:57;92998.59;;;21.34;55.70
65376;BME280;51976;47.332;9.404;2022-09-01T02:03:26;92998.25;;;21.35;55.70
65376;BME280;51976;47.332;9.404;2022-09-01T02:05:55;93005.66;;;21.35;55.73
65376;BME280;51976;47.332;9.404;2022-09-01T02:08:22;93007.19;;;21.32;55.72
65376;BME280;51976;47.332;9.404;2022-09-01T02:10:51;93007.53;;;21.31;55.62
65376;BME280;51976;47.332;9.404;2022-09-01T02:13:19;93008.66;;;21.30;55.54
65376;BME280;51976;47.332;9.404;2022-09-01T02:15:50;92996.09;;;21.28;55.68
65376;BME280;51976;47.332;9.404;2022-09-01T02:18:21;93005.59;;;21.31;55.48
65376;BME280;51976;47.332;9.404;2022-09-01T02:20:49;93005.25;;;21.33;55.70
65376;BME280;51976;47.332;9.404;2022-09-01T02:23:16;93010.28;;;21.31;55.51
65376;BME280;51976;47.332;9.404;2022-09-01T02:25:45;93002.84;;;21.31;55.57
65376;BME280;51976;47.332;9.404;2022-09-01T02:28:12;93006.72;;;21.30;55.83
65376;BME280;51976;47.332;9.404;2022-09-01T02:30:47;93006.28;;;21.28;55.82
65376;BME280;51976;47.332;9.404;2022-09-01T02:33:16;92998.50;;;21.30;55.47
65376;BME280;51976;47.332;9.404;2022-09-01T02:35:49;93001.59;;;21.28;55.51
65376;BME280;51976;47.332;9.404;2022-09-01T02:38:15;93002.03;;;21.31;55.62
65376;BME280;51976;47.332;9.404;2022-09-01T02:40:43;92995.66;;;21.26;55.57
65376;BME280;51976;47.332;9.404;2022-09-01T02:43:11;92997.25;;;21.27;55.45
65376;BME280;51976;47.332;9.404;2022-09-01T02:45:38;92996.91;;;21.29;55.68
65376;BME280;51976;47.332;9.404;2022-09-01T02:48:04;92993.38;;;21.28;55.65
65376;BME280;51976;47.332;9.404;2022-09-01T02:50:35;92990.63;;;21.28;55.56
65376;BME280;51976;47.332;9.404;2022-09-01T02:53:02;92988.56;;;21.25;55.55
65376;BME280;51976;47.332;9.404;2022-09-01T02:55:34;92991.75;;;21.27;55.58
65376;BME280;51976;47.332;9.404;2022-09-01T02:58:00;92986.97;;;21.24;55.65
65376;BME280;51976;47.332;9.404;2022-09-01T03:00:25;92996.09;;;21.28;55.61
65376;BME280;51976;47.332;9.404;2022-09-01T03:02:57;92994.06;;;21.25;55.51
65376;BME280;51976;47.332;9.404;2022-09-01T03:05:25;92988.91;;;21.24;55.45
65376;BME280;51976;47.332;9.404;2022-09-01T03:07:58;92979.88;;;21.23;55.68
65376;BME280;51976;47.332;9.404;2022-09-01T03:10:30;92979.88;;;21.23;55.59
65376;BME280;51976;47.332;9.404;2022-09-01T03:13:05;92984.69;;;21.26;55.60
65376;BME280;51976;47.332;9.404;2022-09-01T03:15:33;92979.53;;;21.25;55.45
65376;BME280;51976;47.332;9.404;2022-09-01T03:18:02;92977.13;;;21.23;55.86
65376;BME280;51976;47.332;9.404;2022-09-01T03:20:29;92974.41;;;21.23;55.68
65376;BME280;51976;47.332;9.404;2022-09-01T03:22:55;92976.34;;;21.23;55.68
65376;BME280;51976;47.332;9.404;2022-09-01T03:25:23;92975.19;;;21.24;55.72
65376;BME280;51976;47.332;9.404;2022-09-01T03:27:50;92972.81;;;21.22;55.57
65376;BME280;51976;47.332;9.404;2022-09-01T03:30:17;92961.38;;;21.20;55.67
65376;BME280;51976;47.332;9.404;2022-09-01T03:32:42;92970.41;;;21.21;55.83
65376;BME280;51976;47.332;9.404;2022-09-01T03:35:10;92968.47;;;21.21;55.83
65376;BME280;51976;47.332;9.404;2022-09-01T03:37:36;92964.22;;;21.24;55.40
65376;BME280;51976;47.332;9.404;2022-09-01T03:40:06;92962.19;;;21.21;55.79
65376;BME280;51976;47.332;9.404;2022-09-01T03:42:34;92965.22;;;21.19;55.71
65376;BME280;51976;47.332;9.404;2022-09-01T03:45:01;92965.22;;;21.19;55.63
65376;BME280;51976;47.332;9.404;2022-09-01T03:47:32;92961.03;;;21.22;55.37
65376;BME280;51976;47.332;9.404;2022-09-01T03:50:00;92969.25;;;21.22;55.60
65376;BME280;51976;47.332;9.404;2022-09-01T03:52:26;92972.34;;;21.20;55.66
65376;BME280;51976;47.332;9.404;2022-09-01T03:54:54;92972.81;;;21.22;55.49
65376;BME280;51976;47.332;9.404;2022-09-01T03:57:19;92963.28;;;21.20;55.60
65376;BME280;51976;47.332;9.404;2022-09-01T03:59:45;92962.97;;;21.21;55.46
65376;BME280;51976;47.332;9.404;2022-09-01T04:02:11;92971.50;;;21.20;55.91
65376;BME280;51976;47.332;9.404;2022-09-01T04:04:37;92973.94;;;21.21;55.59
65376;BME280;51976;47.332;9.404;2022-09-01T04:07:02;92970.41;;;21.21;55.70
65376;BME280;51976;47.332;9.404;2022-09-01T04:09:28;92978.94;;;21.19;55.77
65376;BME280;51976;47.332;9.404;2022-09-01T04:11:53;92967.19;;;21.19;55.70
65376;BME280;51976;47.332;9.404;2022-09-01T04:14:19;92967.97;;;21.19;55.56
65376;BME280;51976;47.332;9.404;2022-09-01T04:16:45;92965.56;;;21.18;55.68
65376;BME280;51976;47.332;9.404;2022-09-01T04:19:34;92971.06;;;21.18;55.64
65376;BME280;51976;47.332;9.404;2022-09-01T04:24:28;92963.63;;;21.18;55.41
65376;BME280;51976;47.332;9.404;2022-09-01T04:26:56;92967.97;;;21.19;55.69
65376;BME280;51976;47.332;9.404;2022-09-01T04:31:52;92964.78;;;21.17;55.69
65376;BME280;51976;47.332;9.404;2022-09-01T04:34:21;92964.78;;;21.17;55.44
65376;BME280;51976;47.332;9.404;2022-09-01T04:36:49;92971.84;;;21.18;55.51
65376;BME280;51976;47.332;9.404;2022-09-01T04:39:19;92968.31;;;21.18;55.64
65376;BME280;51976;47.332;9.404;2022-09-01T04:41:44;92969.81;;;21.15;55.70
65376;BME280;51976;47.332;9.404;2022-09-01T04:44:12;92970.25;;;21.17;55.63
65376;BME280;51976;47.332;9.404;2022-09-01T04:46:41;92964.78;;;21.17;55.54
65376;BME280;51976;47.332;9.404;2022-09-01T04:49:10;92966.03;;;21.20;55.73
65376;BME280;51976;47.332;9.404;2022-09-01T04:51:38;92965.56;;;21.18;55.83
65376;BME280;51976;47.332;9.404;2022-09-01T04:54:05;92971.06;;;21.18;55.37
65376;BME280;51976;47.332;9.404;2022-09-01T04:56:37;92969.13;;;21.18;55.63
65376;BME280;51976;47.332;9.404;2022-09-01T04:59:03;92969.81;;;21.15;55.67
65376;BME280;51976;47.332;9.404;2022-09-01T05:01:32;92973.00;;;21.17;55.51
65376;BME280;51976;47.332;9.404;2022-09-01T05:04:08;92963.41;;;21.11;55.84
65376;BME280;51976;47.332;9.404;2022-09-01T05:06:34;92971.41;;;21.16;55.44
65376;BME280;51976;47.332;9.404;2022-09-01T05:09:03;92975.63;;;21.14;55.60
65376;BME280;51976;47.332;9.404;2022-09-01T05:11:29;92970.94;;;21.14;55.81
65376;BME280;51976;47.332;9.404;2022-09-01T05:13:56;92971.75;;;21.15;55.85
65376;BME280;51976;47.332;9.404;2022-09-01T05:16:22;92977.22;;;21.15;55.80
65376;BME280;51976;47.332;9.404;2022-09-01T05:18:51;92975.63;;;21.14;55.59
65376;BME280;51976;47.332;9.404;2022-09-01T05:21:20;92973.22;;;21.12;55.78
65376;BME280;51976;47.332;9.404;2022-09-01T05:23:49;92975.97;;;21.12;55.87
65376;BME280;51976;47.332;9.404;2022-09-01T05:26:25;92977.56;;;21.13;55.60
65376;BME280;51976;47.332;9.404;2022-09-01T05:28:54;92982.59;;;21.11;55.63
65376;BME280;51976;47.332;9.404;2022-09-01T05:31:22;92974.81;;;21.13;55.74
65376;BME280;51976;47.332;9.404;2022-09-01T05:33:49;92979.50;;;21.13;55.65
65376;BME280;51976;47.332;9.404;2022-09-01T05:36:17;92974.03;;;21.13;55.54
65376;BME280;51976;47.332;9.404;2022-09-01T05:38:45;92972.53;;;21.15;55.41
65376;BME280;51976;47.332;9.404;2022-09-01T05:41:12;92973.69;;;21.14;55.43
65376;BME280;51976;47.332;9.404;2022-09-01T05:43:43;92980.31;;;21.13;55.59
65376;BME280;51976;47.332;9.404;2022-09-01T05:46:15;92973.22;;;21.12;55.58
65376;BME280;51976;47.332;9.404;2022-09-01T05:48:42;92978.03;;;21.15;55.56
65376;BME280;51976;47.332;9.404;2022-09-01T05:51:10;92983.06;;;21.13;55.67
65376;BME280;51976;47.332;9.404;2022-09-01T05:53:36;92971.63;;;21.11;55.81
65376;BME280;51976;47.332;9.404;2022-09-01T05:56:05;92973.22;;;21.12;55.52
65376;BME280;51976;47.332;9.404;2022-09-01T05:58:32;92984.19;;;21.12;55.64
65376;BME280;51976;47.332;9.404;2022-09-01T06:01:00;92986.59;;;21.14;55.54
65376;BME280;51976;47.332;9.404;2022-09-01T06:03:26;92976.78;;;21.13;55.54
65376;BME280;51976;47.332;9.404;2022-09-01T06:05:53;92988.53;;;21.13;55.70
65376;BME280;51976;47.332;9.404;2022-09-01T06:08:22;92978.38;;;21.14;55.55
65376;BME280;51976;47.332;9.404;2022-09-01T06:10:50;92973.56;;;21.11;55.93
65376;BME280;51976;47.332;9.404;2022-09-01T06:13:17;92970.94;;;21.14;55.74
65376;BME280;51976;47.332;9.404;2022-09-01T06:15:47;92971.84;;;21.18;55.80
65376;BME280;51976;47.332;9.404;2022-09-01T06:18:13;92976.44;;;21.14;55.67
65376;BME280;51976;47.332;9.404;2022-09-01T06:20:40;92972.44;;;21.12;55.46
65376;BME280;51976;47.332;9.404;2022-09-01T06:23:07;92967.41;;;21.14;55.68
65376;BME280;51976;47.332;9.404;2022-09-01T06:25:36;92974.81;;;21.13;55.49
65376;BME280;51976;47.332;9.404;2022-09-01T06:28:02;92974.03;;;21.13;55.30
65376;BME280;51976;47.332;9.404;2022-09-01T06:30:29;92968.66;;;21.16;55.60
65376;BME280;51976;47.332;9.404;2022-09-01T06:32:55;92973.81;;;21.18;55.56
65376;BME280;51976;47.332;9.404;2022-09-01T06:35:22;92975.09;;;21.20;55.33
65376;BME280;51976;47.332;9.404;2022-09-01T06:37:53;92954.28;;;21.07;55.68
65376;BME280;51976;47.332;9.404;2022-09-01T06:40:21;92981.03;;;21.22;55.69
65376;BME280;51976;47.332;9.404;2022-09-01T06:42:50;92976.34;;;21.23;55.42
65376;BME280;51976;47.332;9.404;2022-09-01T06:45:19;92976.34;;;21.23;55.50
65376;BME280;51976;47.332;9.404;2022-09-01T06:47:46;92976.78;;;21.25;55.57
65376;BME280;51976;47.332;9.404;2022-09-01T06:50:16;92980.00;;;21.27;55.71
65376;BME280;51976;47.332;9.404;2022-09-01T06:52:44;92984.69;;;21.26;55.78
65376;BME280;51976;47.332;9.404;2022-09-01T06:55:11;92981.94;;;21.26;55.86
65376;BME280;51976;47.332;9.404;2022-09-01T06:57:38;92990.97;;;21.27;56.00
65376;BME280;51976;47.332;9.404;2022-09-01T07:00:06;92991.75;;;21.27;56.19
65376;BME280;51976;47.332;9.404;2022-09-01T07:02:45;92992.56;;;21.28;56.20
65376;BME280;51976;47.332;9.404;2022-09-01T07:05:12;92994.50;;;21.27;56.11
65376;BME280;51976;47.332;9.404;2022-09-01T07:07:47;92991.06;;;21.31;56.25
65376;BME280;51976;47.332;9.404;2022-09-01T07:10:15;92987.19;;;21.32;56.08
65376;BME280;51976;47.332;9.404;2022-09-01T07:12:45;92987.19;;;21.32;56.14
65376;BME280;51976;47.332;9.404;2022-09-01T07:15:12;92996.22;;;21.32;56.33
65376;BME280;51976;47.332;9.404;2022-09-01T07:17:41;92992.69;;;21.32;56.71
65376;BME280;51976;47.332;9.404;2022-09-01T07:20:07;92994.28;;;21.33;56.38
65376;BME280;51976;47.332;9.404;2022-09-01T07:22:34;93002.50;;;21.33;56.44
65376;BME280;51976;47.332;9.404;2022-09-01T07:24:59;92994.28;;;21.33;56.40
65376;BME280;51976;47.332;9.404;2022-09-01T07:27:25;92998.16;;;21.32;56.37
65376;BME280;51976;47.332;9.404;2022-09-01T07:29:51;93002.84;;;21.31;56.31
65376;BME280;51976;47.332;9.404;2022-09-01T07:32:19;93002.03;;;21.31;56.41
65376;BME280;51976;47.332;9.404;2022-09-01T07:34:44;93000.09;;;21.31;56.04
65376;BME280;51976;47.332;9.404;2022-09-01T07:37:10;93002.72;;;21.27;56.20
65376;BME280;51976;47.332;9.404;2022-09-01T07:39:35;93005.13;;;21.29;56.05
65376;BME280;51976;47.332;9.404;2022-09-01T07:42:02;93008.34;;;21.31;55.70
65376;BME280;51976;47.332;9.404;2022-09-01T07:44:36;93011.53;;;21.33;55.50
65376;BME280;51976;47.332;9.404;2022-09-01T07:47:03;93009.13;;;21.32;55.15
65376;BME280;51976;47.332;9.404;2022-09-01T07:49:29;93012.28;;;21.34;55.20
65376;BME280;51976;47.332;9.404;2022-09-01T07:51:54;93015.03;;;21.34;54.97
65376;BME280;51976;47.332;9.404;2022-09-01T07:54:21;93011.16;;;21.35;54.91
65376;BME280;51976;47.332;9.404;2022-09-01T07:56:48;93010.81;;;21.36;55.00
65376;BME280;51976;47.332;9.404;2022-09-01T07:59:14;93018.69;;;21.38;54.96
65376;BME280;51976;47.332;9.404;2022-09-01T08:01:39;93011.63;;;21.37;54.84
65376;BME280;51976;47.332;9.404;2022-09-01T08:04:06;93016.75;;;21.38;54.84
65376;BME280;51976;47.332;9.404;2022-09-01T08:06:33;93018.69;;;21.38;54.61
65376;BME280;51976;47.332;9.404;2022-09-01T08:08:59;93015.50;;;21.36;54.79
65376;BME280;51976;47.332;9.404;2022-09-01T08:11:29;93017.09;;;21.37;54.79
65376;BME280;51976;47.332;9.404;2022-09-01T08:13:55;93021.44;;;21.38;54.59
65376;BME280;51976;47.332;9.404;2022-09-01T08:16:24;93024.63;;;21.40;54.37
65376;BME280;51976;47.332;9.404;2022-09-01T08:18:49;93025.78;;;21.39;54.53
65376;BME280;51976;47.332;9.404;2022-09-01T08:21:16;93018.69;;;21.38;54.28
65376;BME280;51976;47.332;9.404;2022-09-01T08:23:42;93023.84;;;21.39;54.22
65376;BME280;51976;47.332;9.404;2022-09-01T08:26:12;93030.81;;;21.37;54.19
65376;BME280;51976;47.332;9.404;2022-09-01T08:28:38;93028.53;;;21.39;53.93
65376;BME280;51976;47.332;9.404;2022-09-01T08:31:08;93030.47;;;21.38;53.79
65376;BME280;51976;47.332;9.404;2022-09-01T08:33:36;93026.56;;;21.39;53.95
65376;BME280;51976;47.332;9.404;2022-09-01T08:36:02;93023.03;;;21.39;53.93
65376;BME280;51976;47.332;9.404;2022-09-01T08:38:28;93021.44;;;21.38;54.12
65376;BME280;51976;47.332;9.404;2022-09-01T08:40:56;93022.56;;;21.37;53.86
65376;BME280;51976;47.332;9.404;2022-09-01T08:43:40;93023.72;;;21.36;54.02
65376;BME280;51976;47.332;9.404;2022-09-01T08:46:18;93029.66;;;21.38;54.02
65376;BME280;51976;47.332;9.404;2022-09-01T08:48:49;93028.88;;;21.37;53.81
65376;BME280;51976;47.332;9.404;2022-09-01T08:51:43;93030.47;;;21.38;53.83
65376;BME280;51976;47.332;9.404;2022-09-01T08:55:11;93032.88;;;21.40;53.40
65376;BME280;51976;47.332;9.404;2022-09-01T08:57:25;93024.97;;;21.38;53.58
65376;BME280;51976;47.332;9.404;2022-09-01T08:59:55;93025.44;;;21.40;53.37
65376;BME280;51976;47.332;9.404;2022-09-01T09:02:42;93032.53;;;21.41;53.58
65376;BME280;51976;47.332;9.404;2022-09-01T09:05:34;93018.81;;;21.41;53.51
65376;BME280;51976;47.332;9.404;2022-09-01T09:08:33;93028.63;;;21.42;53.52
65376;BME280;51976;47.332;9.404;2022-09-01T09:11:07;93033.78;;;21.44;53.15
65376;BME280;51976;47.332;9.404;2022-09-01T09:13:53;93024.75;;;21.43;53.38
65376;BME280;51976;47.332;9.404;2022-09-01T09:16:39;93024.28;;;21.41;53.14
65376;BME280;51976;47.332;9.404;2022-09-01T09:19:10;93022.00;;;21.43;53.22
65376;BME280;51976;47.332;9.404;2022-09-01T09:21:42;93024.41;;;21.45;53.33
65376;BME280;51976;47.332;9.404;2022-09-01T09:24:42;93022.81;;;21.44;53.16
65376;BME280;51976;47.332;9.404;2022-09-01T09:27:28;93026.69;;;21.43;52.96
65376;BME280;51976;47.332;9.404;2022-09-01T09:30:00;93022.81;;;21.44;53.08
65376;BME280;51976;47.332;9.404;2022-09-01T09:32:53;93023.59;;;21.44;53.02
65376;BME280;51976;47.332;9.404;2022-09-01T09:35:42;93019.03;;;21.48;53.01
65376;BME280;51976;47.332;9.404;2022-09-01T09:38:19;93020.88;;;21.44;52.90
65376;BME280;51976;47.332;9.404;2022-09-01T09:41:07;93023.59;;;21.44;52.94
65376;BME280;51976;47.332;9.404;2022-09-01T09:43:37;93022.81;;;21.44;53.13
65376;BME280;51976;47.332;9.404;2022-09-01T09:46:35;93015.25;;;21.41;53.22
65376;BME280;51976;47.332;9.404;2022-09-01T09:49:30;93011.38;;;21.42;52.98
65376;BME280;51976;47.332;9.404;2022-09-01T09:52:13;93015.72;;;21.43;53.08
65376;BME280;51976;47.332;9.404;2022-09-01T09:54:57;93018.91;;;21.45;53.04
65376;BME280;51976;47.332;9.404;2022-09-01T09:57:24;93007.94;;;21.45;53.29
65376;BME280;51976;47.332;9.404;2022-09-01T10:00:05;93012.19;;;21.42;53.11
65376;BME280;51976;47.332;9.404;2022-09-01T10:02:37;93006.00;;;21.45;53.34
65376;BME280;51976;47.332;9.404;2022-09-01T10:05:41;93004.53;;;21.48;52.89
65376;BME280;51976;47.332;9.404;2022-09-01T10:08:11;93013.22;;;21.50;53.21
65376;BME280;51976;47.332;9.404;2022-09-01T10:10:43;93001.09;;;21.51;52.97
65376;BME280;51976;47.332;9.404;2022-09-01T10:13:13;93020.63;;;21.49;53.00
65376;BME280;51976;47.332;9.404;2022-09-01T10:15:40;93011.16;;;21.47;53.09
65376;BME280;51976;47.332;9.404;2022-09-01T10:18:11;93015.84;;;21.46;53.00
65376;BME280;51976;47.332;9.404;2022-09-01T10:20:44;93013.88;;;21.47;53.30
65376;BME280;51976;47.332;9.404;2022-09-01T10:23:12;93016.28;;;21.48;53.15
65376;BME280;51976;47.332;9.404;2022-09-01T10:25:39;93018.22;;;21.48;53.29
65376;BME280;51976;47.332;9.404;2022-09-01T10:28:11;93008.41;;;21.47;53.22
65376;BME280;51976;47.332;9.404;2022-09-01T10:30:42;93013.44;;;21.45;53.27
65376;BME280;51976;47.332;9.404;2022-09-01T10:33:13;93013.88;;;21.47;53.22
65376;BME280;51976;47.332;9.404;2022-09-01T10:35:44;93011.94;;;21.47;53.24
65376;BME280;51976;47.332;9.404;2022-09-01T10:38:18;93015.50;;;21.48;53.09
65376;BME280;51976;47.332;9.404;2022-09-01T10:40:47;93013.88;;;21.47;53.30
65376;BME280;51976;47.332;9.404;2022-09-01T10:43:28;93006.47;;;21.47;53.46
65376;BME280;51976;47.332;9.404;2022-09-01T10:45:58;93012.75;;;21.48;53.42
65376;BME280;51976;47.332;9.404;2022-09-01T10:48:29;93005.66;;;21.47;53.17
65376;BME280;51976;47.332;9.404;2022-09-01T10:54:01;93006.56;;;21.51;53.31
65376;BME280;51976;47.332;9.404;2022-09-01T10:56:43;93013.66;;;21.52;53.28
65376;BME280;51976;47.332;9.404;2022-09-01T10:59:25;93004.41;;;21.56;53.03
65376;BME280;51976;47.332;9.404;2022-09-01T11:02:14;93005.19;;;21.57;53.33
65376;BME280;51976;47.332;9.404;2022-09-01T11:05:08;93013.16;;;21.62;53.14
65376;BME280;51976;47.332;9.404;2022-09-01T11:07:35;93006.06;;;21.61;53.18
65376;BME280;51976;47.332;9.404;2022-09-01T11:10:24;93011.47;;;21.57;53.37
65376;BME280;51976;47.332;9.404;2022-09-01T11:13:25;92995.81;;;21.58;53.40
65376;BME280;51976;47.332;9.404;2022-09-01T11:15:54;93002.19;;;21.62;53.12
65376;BME280;51976;47.332;9.404;2022-09-01T11:18:28;93005.03;;;21.66;53.02
65376;BME280;51976;47.332;9.404;2022-09-01T11:21:14;93003.56;;;21.68;53.08
65376;BME280;51976;47.332;9.404;2022-09-01T11:23:40;93002.50;;;21.73;53.01
65376;BME280;51976;47.332;9.404;2022-09-01T11:29:06;92998.28;;;21.75;53.12
65376;BME280;51976;47.332;9.404;2022-09-01T11:31:39;92999.53;;;21.78;53.03
65376;BME280;51976;47.332;9.404;2022-09-01T11:34:17;92994.03;;;21.78;53.03
65376;BME280;51976;47.332;9.404;2022-09-01T11:36:50;92993.47;;;21.72;53.52
65376;BME280;51976;47.332;9.404;2022-09-01T11:39:37;92997.59;;;21.78;52.92
65376;BME280;51976;47.332;9.404;2022-09-01T11:42:17;92994.19;;;21.69;53.54
65376;BME280;51976;47.332;9.404;2022-09-01T11:45:11;92991.41;;;21.81;52.95
65376;BME280;51976;47.332;9.404;2022-09-01T11:47:41;92995.94;;;21.89;53.31
65376;BME280;51976;47.332;9.404;2022-09-01T11:50:20;92990.91;;;21.91;53.10
65376;BME280;51976;47.332;9.404;2022-09-01T11:53:02;92995.44;;;22.00;52.98
65376;BME280;51976;47.332;9.404;2022-09-01T11:55:37;92992.69;;;22.00;53.25
65376;BME280;51976;47.332;9.404;2022-09-01T11:58:05;92999.22;;;21.95;53.46
65376;BME280;51976;47.332;9.404;2022-09-01T12:00:34;92994.53;;;21.95;53.28
65376;BME280;51976;47.332;9.404;2022-09-01T12:03:04;92980.38;;;21.93;53.23
65376;BME280;51976;47.332;9.404;2022-09-01T12:05:32;92991.81;;;21.95;53.63
65376;BME280;51976;47.332;9.404;2022-09-01T12:08:01;92990.66;;;21.96;53.37
65376;BME280;51976;47.332;9.404;2022-09-01T12:10:33;92989.84;;;21.96;53.56
65376;BME280;51976;47.332;9.404;2022-09-01T12:13:04;92993.19;;;22.02;53.48
65376;BME280;51976;47.332;9.404;2022-09-01T12:15:30;92996.03;;;22.05;53.57
65376;BME280;51976;47.332;9.404;2022-09-01T12:18:11;92997.28;;;22.08;53.33
65376;BME280;51976;47.332;9.404;2022-09-01T12:20:37;92991.00;;;22.07;53.59
65376;BME280;51976;47.332;9.404;2022-09-01T12:23:11;92989.25;;;22.15;53.35
65376;BME280;51976;47.332;9.404;2022-09-01T12:25:39;92991.91;;;22.11;53.27
65376;BME280;51976;47.332;9.404;2022-09-01T12:28:05;92989.78;;;22.20;53.17
65376;BME280;51976;47.332;9.404;2022-09-01T12:30:31;92989.19;;;22.27;53.19
65376;BME280;51976;47.332;9.404;2022-09-01T12:33:06;92983.44;;;22.32;53.05
65376;BME280;51976;47.332;9.404;2022-09-01T12:35:33;92984.94;;;22.29;53.03
65376;BME280;51976;47.332;9.404;2022-09-01T12:38:22;92987.97;;;22.40;52.97
65376;BME280;51976;47.332;9.404;2022-09-01T12:40:56;92988.41;;;22.42;52.68
65376;BME280;51976;47.332;9.404;2022-09-01T12:43:34;92983.53;;;22.51;52.77
65376;BME280;51976;47.332;9.404;2022-09-01T12:46:02;92975.28;;;22.51;52.61
65376;BME280;51976;47.332;9.404;2022-09-01T12:48:33;92988.03;;;22.44;52.94
65376;BME280;51976;47.332;9.404;2022-09-01T12:51:02;92987.25;;;22.43;53.16
65376;BME280;51976;47.332;9.404;2022-09-01T12:53:30;92991.34;;;22.49;53.00
65376;BME280;51976;47.332;9.404;2022-09-01T12:56:00;92982.94;;;22.42;53.03
65376;BME280;51976;47.332;9.404;2022-09-01T12:58:27;92984.69;;;22.50;52.81
65376;BME280;51976;47.332;9.404;2022-09-01T13:00:58;92982.50;;;22.56;52.96
65376;BME280;51976;47.332;9.404;2022-09-01T13:03:24;92978.84;;;22.52;53.14
65376;BME280;51976;47.332;9.404;2022-09-01T13:05:53;92974.78;;;22.61;52.82
65376;BME280;51976;47.332;9.404;2022-09-01T13:08:22;92971.25;;;22.61;52.66
65376;BME280;51976;47.332;9.404;2022-09-01T13:10:56;92970.63;;;22.68;52.84
65376;BME280;51976;47.332;9.404;2022-09-01T13:13:24;92962.03;;;22.69;52.50
65376;BME280;51976;47.332;9.404;2022-09-01T13:15:52;92965.72;;;22.77;52.48
65376;BME280;51976;47.332;9.404;2022-09-01T13:18:21;92971.34;;;22.65;52.78
65376;BME280;51976;47.332;9.404;2022-09-01T13:20:47;92969.13;;;22.70;52.89
65376;BME280;51976;47.332;9.404;2022-09-01T13:23:13;92970.19;;;22.66;52.97
65376;BME280;51976;47.332;9.404;2022-09-01T13:25:39;92966.53;;;22.61;52.83
65376;BME280;51976;47.332;9.404;2022-09-01T13:28:06;92967.00;;;22.63;53.05
65376;BME280;51976;47.332;9.404;2022-09-01T13:30:33;92964.25;;;22.63;52.89
65376;BME280;51976;47.332;9.404;2022-09-01T13:32:59;92964.84;;;22.57;53.21